sensor_id;sensor_type;location;lat;lon;timestamp;P1;durP1;ratioP1;P2;durP2;ratioP2
75423;SDS011;64005;55.160;36.002;2023-06-14T00:00:52;6.43;;;2.88;;
75423;SDS011;64005;55.160;36.002;2023-06-14T00:03:22;7.15;;;2.60;;
75423;SDS011;64005;55.160;36.002;2023-06-14T00:05:50;7.05;;;3.00;;
75423;SDS011;64005;55.160;36.002;2023-06-14T00:08:18;7.38;;;2.95;;
75423;SDS011;64005;55.160;36.002;2023-06-14T00:10:46;5.70;;;2.50;;
75423;SDS011;64005;55.160;36.002;2023-06-14T00:13:14;8.70;;;2.80;;
75423;SDS011;64005;55.160;36.002;2023-06-14T00:15:41;9.07;;;3.13;;
75423;SDS011;64005;55.160;36.002;2023-06-14T00:18:11;6.90;;;2.85;;
75423;SDS011;64005;55.160;36.002;2023-06-14T00:20:38;11.13;;;3.05;;
75423;SDS011;64005;55.160;36.002;2023-06-14T00:23:07;8.20;;;2.90;;
75423;SDS011;64005;55.160;36.002;2023-06-14T00:25:35;6.72;;;2.83;;
75423;SDS011;64005;55.160;36.002;2023-06-14T00:28:02;5.90;;;2.67;;
75423;SDS011;64005;55.160;36.002;2023-06-14T00:30:30;10.05;;;2.72;;
75423;SDS011;64005;55.160;36.002;2023-06-14T00:32:58;6.82;;;2.72;;
75423;SDS011;64005;55.160;36.002;2023-06-14T00:35:28;7.15;;;2.83;;
75423;SDS011;64005;55.160;36.002;2023-06-14T00:37:55;6.90;;;2.58;;
75423;SDS011;64005;55.160;36.002;2023-06-14T00:40:23;6.40;;;3.03;;
75423;SDS011;64005;55.160;36.002;2023-06-14T00:42:50;7.35;;;2.47;;
75423;SDS011;64005;55.160;36.002;2023-06-14T00:45:18;6.75;;;2.78;;
75423;SDS011;64005;55.160;36.002;2023-06-14T00:47:45;5.95;;;2.40;;
75423;SDS011;64005;55.160;36.002;2023-06-14T00:50:16;8.80;;;2.78;;
75423;SDS011;64005;55.160;36.002;2023-06-14T00:52:45;8.05;;;2.50;;
75423;SDS011;64005;55.160;36.002;2023-06-14T00:55:13;7.13;;;3.00;;
75423;SDS011;64005;55.160;36.002;2023-06-14T00:57:40;5.85;;;2.67;;
75423;SDS011;64005;55.160;36.002;2023-06-14T01:00:08;9.15;;;3.40;;
75423;SDS011;64005;55.160;36.002;2023-06-14T01:02:39;8.45;;;2.88;;
75423;SDS011;64005;55.160;36.002;2023-06-14T01:05:08;6.88;;;2.80;;
75423;SDS011;64005;55.160;36.002;2023-06-14T01:07:43;6.53;;;2.78;;
75423;SDS011;64005;55.160;36.002;2023-06-14T01:10:29;5.03;;;2.47;;
75423;SDS011;64005;55.160;36.002;2023-06-14T01:13:05;9.32;;;3.28;;
75423;SDS011;64005;55.160;36.002;2023-06-14T01:15:38;6.65;;;2.65;;
75423;SDS011;64005;55.160;36.002;2023-06-14T01:18:07;7.20;;;2.88;;
75423;SDS011;64005;55.160;36.002;2023-06-14T01:20:43;9.85;;;2.88;;
75423;SDS011;64005;55.160;36.002;2023-06-14T01:23:16;7.00;;;2.60;;
75423;SDS011;64005;55.160;36.002;2023-06-14T01:25:44;6.38;;;2.80;;
75423;SDS011;64005;55.160;36.002;2023-06-14T01:28:12;8.48;;;2.95;;
75423;SDS011;64005;55.160;36.002;2023-06-14T01:30:42;8.98;;;3.78;;
75423;SDS011;64005;55.160;36.002;2023-06-14T01:33:13;5.18;;;2.38;;
75423;SDS011;64005;55.160;36.002;2023-06-14T01:35:43;6.15;;;2.85;;
75423;SDS011;64005;55.160;36.002;2023-06-14T01:38:12;8.43;;;3.00;;
75423;SDS011;64005;55.160;36.002;2023-06-14T01:40:42;8.38;;;3.45;;
75423;SDS011;64005;55.160;36.002;2023-06-14T01:43:11;7.25;;;2.60;;
75423;SDS011;64005;55.160;36.002;2023-06-14T01:45:41;6.32;;;3.10;;
75423;SDS011;64005;55.160;36.002;2023-06-14T01:48:11;7.38;;;2.85;;
75423;SDS011;64005;55.160;36.002;2023-06-14T01:50:39;8.50;;;3.17;;
75423;SDS011;64005;55.160;36.002;2023-06-14T01:53:07;7.28;;;2.65;;
75423;SDS011;64005;55.160;36.002;2023-06-14T01:55:36;7.60;;;3.22;;
75423;SDS011;64005;55.160;36.002;2023-06-14T01:58:05;5.38;;;2.63;;
75423;SDS011;64005;55.160;36.002;2023-06-14T02:00:33;8.40;;;3.05;;
75423;SDS011;64005;55.160;36.002;2023-06-14T02:03:01;8.93;;;3.45;;
75423;SDS011;64005;55.160;36.002;2023-06-14T02:05:29;6.90;;;3.20;;
75423;SDS011;64005;55.160;36.002;2023-06-14T02:07:57;10.18;;;3.70;;
75423;SDS011;64005;55.160;36.002;2023-06-14T02:10:24;8.18;;;3.08;;
75423;SDS011;64005;55.160;36.002;2023-06-14T02:12:52;6.75;;;2.95;;
75423;SDS011;64005;55.160;36.002;2023-06-14T02:15:21;7.32;;;3.30;;
75423;SDS011;64005;55.160;36.002;2023-06-14T02:17:49;8.52;;;3.55;;
75423;SDS011;64005;55.160;36.002;2023-06-14T02:20:17;7.68;;;2.88;;
75423;SDS011;64005;55.160;36.002;2023-06-14T02:22:44;8.80;;;3.92;;
75423;SDS011;64005;55.160;36.002;2023-06-14T02:25:12;7.80;;;3.30;;
75423;SDS011;64005;55.160;36.002;2023-06-14T02:27:41;6.95;;;2.78;;
75423;SDS011;64005;55.160;36.002;2023-06-14T02:30:09;6.55;;;3.00;;
75423;SDS011;64005;55.160;36.002;2023-06-14T02:32:39;7.85;;;3.45;;
75423;SDS011;64005;55.160;36.002;2023-06-14T02:35:08;10.30;;;3.20;;
75423;SDS011;64005;55.160;36.002;2023-06-14T02:37:36;8.88;;;3.35;;
75423;SDS011;64005;55.160;36.002;2023-06-14T02:40:04;7.55;;;3.13;;
75423;SDS011;64005;55.160;36.002;2023-06-14T02:42:34;7.80;;;3.53;;
75423;SDS011;64005;55.160;36.002;2023-06-14T02:47:39;6.55;;;3.03;;
75423;SDS011;64005;55.160;36.002;2023-06-14T04:54:58;7.63;;;2.13;;
75423;SDS011;64005;55.160;36.002;2023-06-14T14:54:17;6.05;;;2.53;;
75423;SDS011;64005;55.160;36.002;2023-06-14T18:21:07;6.15;;;2.42;;
75423;SDS011;64005;55.160;36.002;2023-06-14T18:23:36;8.85;;;3.08;;
75423;SDS011;64005;55.160;36.002;2023-06-14T18:26:03;8.15;;;2.60;;
75423;SDS011;64005;55.160;36.002;2023-06-14T18:28:31;7.75;;;3.13;;
75423;SDS011;64005;55.160;36.002;2023-06-14T18:30:58;8.13;;;3.25;;
75423;SDS011;64005;55.160;36.002;2023-06-14T18:33:40;6.72;;;3.10;;
75423;SDS011;64005;55.160;36.002;2023-06-14T18:36:09;9.15;;;3.15;;
75423;SDS011;64005;55.160;36.002;2023-06-14T18:38:36;10.18;;;4.10;;
75423;SDS011;64005;55.160;36.002;2023-06-14T18:41:04;14.32;;;5.47;;
75423;SDS011;64005;55.160;36.002;2023-06-14T18:43:31;26.02;;;11.40;;
75423;SDS011;64005;55.160;36.002;2023-06-14T18:45:59;33.35;;;14.55;;
75423;SDS011;64005;55.160;36.002;2023-06-14T18:48:27;19.58;;;8.40;;
75423;SDS011;64005;55.160;36.002;2023-06-14T18:50:54;19.95;;;9.60;;
75423;SDS011;64005;55.160;36.002;2023-06-14T18:53:23;14.55;;;6.97;;
75423;SDS011;64005;55.160;36.002;2023-06-14T18:55:52;12.77;;;5.68;;
75423;SDS011;64005;55.160;36.002;2023-06-14T18:58:20;18.23;;;8.07;;
75423;SDS011;64005;55.160;36.002;2023-06-14T19:00:48;15.48;;;6.82;;
75423;SDS011;64005;55.160;36.002;2023-06-14T19:03:15;7.18;;;3.05;;
75423;SDS011;64005;55.160;36.002;2023-06-14T19:05:43;6.25;;;2.92;;
75423;SDS011;64005;55.160;36.002;2023-06-14T19:08:11;6.90;;;3.30;;
75423;SDS011;64005;55.160;36.002;2023-06-14T19:10:40;7.35;;;3.30;;
75423;SDS011;64005;55.160;36.002;2023-06-14T19:13:07;7.60;;;3.30;;
75423;SDS011;64005;55.160;36.002;2023-06-14T19:15:36;6.95;;;3.20;;
75423;SDS011;64005;55.160;36.002;2023-06-14T19:18:04;10.07;;;3.33;;
75423;SDS011;64005;55.160;36.002;2023-06-14T19:20:31;6.78;;;2.88;;
75423;SDS011;64005;55.160;36.002;2023-06-14T19:23:00;7.13;;;3.08;;
75423;SDS011;64005;55.160;36.002;2023-06-14T19:25:28;7.13;;;3.10;;
75423;SDS011;64005;55.160;36.002;2023-06-14T19:27:57;6.88;;;2.90;;
75423;SDS011;64005;55.160;36.002;2023-06-14T19:30:25;7.20;;;2.70;;
75423;SDS011;64005;55.160;36.002;2023-06-14T19:32:52;7.30;;;3.10;;
75423;SDS011;64005;55.160;36.002;2023-06-14T19:35:20;8.77;;;3.30;;
75423;SDS011;64005;55.160;36.002;2023-06-14T19:37:48;7.53;;;3.03;;
75423;SDS011;64005;55.160;36.002;2023-06-14T19:40:16;6.63;;;4.18;;
75423;SDS011;64005;55.160;36.002;2023-06-14T19:42:46;8.25;;;2.88;;
75423;SDS011;64005;55.160;36.002;2023-06-14T19:45:15;8.68;;;3.20;;
75423;SDS011;64005;55.160;36.002;2023-06-14T19:47:42;7.10;;;2.97;;
75423;SDS011;64005;55.160;36.002;2023-06-14T19:50:11;8.98;;;3.15;;
75423;SDS011;64005;55.160;36.002;2023-06-14T19:52:38;7.50;;;3.00;;
75423;SDS011;64005;55.160;36.002;2023-06-14T19:55:06;6.50;;;3.40;;
75423;SDS011;64005;55.160;36.002;2023-06-14T19:57:34;6.35;;;3.25;;
75423;SDS011;64005;55.160;36.002;2023-06-14T20:00:01;5.55;;;2.88;;
75423;SDS011;64005;55.160;36.002;2023-06-14T20:02:33;8.65;;;3.15;;
75423;SDS011;64005;55.160;36.002;2023-06-14T20:05:00;9.55;;;3.75;;
75423;SDS011;64005;55.160;36.002;2023-06-14T20:07:29;6.45;;;3.13;;
75423;SDS011;64005;55.160;36.002;2023-06-14T20:09:57;9.88;;;3.13;;
75423;SDS011;64005;55.160;36.002;2023-06-14T20:12:25;6.53;;;2.92;;
75423;SDS011;64005;55.160;36.002;2023-06-14T20:14:52;8.88;;;3.10;;
75423;SDS011;64005;55.160;36.002;2023-06-14T20:17:20;7.47;;;2.85;;
75423;SDS011;64005;55.160;36.002;2023-06-14T20:19:50;7.07;;;2.55;;
75423;SDS011;64005;55.160;36.002;2023-06-14T20:22:18;7.18;;;2.55;;
75423;SDS011;64005;55.160;36.002;2023-06-14T20:24:47;6.90;;;2.95;;
75423;SDS011;64005;55.160;36.002;2023-06-14T20:27:14;11.25;;;3.15;;
75423;SDS011;64005;55.160;36.002;2023-06-14T20:29:42;7.72;;;3.17;;
75423;SDS011;64005;55.160;36.002;2023-06-14T20:32:09;7.97;;;3.03;;
75423;SDS011;64005;55.160;36.002;2023-06-14T20:34:37;8.27;;;3.38;;
75423;SDS011;64005;55.160;36.002;2023-06-14T20:37:06;6.93;;;3.13;;
75423;SDS011;64005;55.160;36.002;2023-06-14T20:39:33;11.98;;;3.50;;
75423;SDS011;64005;55.160;36.002;2023-06-14T20:42:01;7.38;;;2.85;;
75423;SDS011;64005;55.160;36.002;2023-06-14T20:44:29;8.65;;;3.50;;
75423;SDS011;64005;55.160;36.002;2023-06-14T20:47:04;7.13;;;2.95;;
75423;SDS011;64005;55.160;36.002;2023-06-14T20:49:33;7.28;;;3.20;;
75423;SDS011;64005;55.160;36.002;2023-06-14T20:52:01;7.20;;;2.92;;
75423;SDS011;64005;55.160;36.002;2023-06-14T20:54:30;6.90;;;3.25;;
75423;SDS011;64005;55.160;36.002;2023-06-14T20:56:59;7.10;;;2.90;;
75423;SDS011;64005;55.160;36.002;2023-06-14T20:59:26;7.57;;;3.15;;
75423;SDS011;64005;55.160;36.002;2023-06-14T21:01:55;7.50;;;2.85;;
75423;SDS011;64005;55.160;36.002;2023-06-14T21:04:22;9.73;;;3.13;;
75423;SDS011;64005;55.160;36.002;2023-06-14T21:06:50;6.65;;;3.10;;
75423;SDS011;64005;55.160;36.002;2023-06-14T21:09:17;10.20;;;3.00;;
75423;SDS011;64005;55.160;36.002;2023-06-14T21:11:46;6.85;;;2.92;;
75423;SDS011;64005;55.160;36.002;2023-06-14T21:14:14;8.82;;;2.88;;
75423;SDS011;64005;55.160;36.002;2023-06-14T21:16:41;5.88;;;2.65;;
75423;SDS011;64005;55.160;36.002;2023-06-14T21:19:09;8.95;;;3.15;;
75423;SDS011;64005;55.160;36.002;2023-06-14T21:21:36;6.78;;;3.30;;
75423;SDS011;64005;55.160;36.002;2023-06-14T21:24:05;6.38;;;3.40;;
75423;SDS011;64005;55.160;36.002;2023-06-14T21:26:33;8.32;;;3.00;;
75423;SDS011;64005;55.160;36.002;2023-06-14T21:29:02;6.93;;;2.65;;
75423;SDS011;64005;55.160;36.002;2023-06-14T21:31:30;8.90;;;2.92;;
75423;SDS011;64005;55.160;36.002;2023-06-14T21:33:57;7.85;;;3.10;;
75423;SDS011;64005;55.160;36.002;2023-06-14T21:36:25;8.95;;;2.70;;
75423;SDS011;64005;55.160;36.002;2023-06-14T21:38:53;7.60;;;3.47;;
75423;SDS011;64005;55.160;36.002;2023-06-14T21:41:20;9.05;;;3.20;;
75423;SDS011;64005;55.160;36.002;2023-06-14T21:43:48;7.13;;;3.20;;
75423;SDS011;64005;55.160;36.002;2023-06-14T21:46:17;9.32;;;3.00;;
75423;SDS011;64005;55.160;36.002;2023-06-14T21:48:45;11.73;;;2.78;;
75423;SDS011;64005;55.160;36.002;2023-06-14T21:51:12;5.53;;;2.65;;
75423;SDS011;64005;55.160;36.002;2023-06-14T21:53:40;8.95;;;3.22;;
75423;SDS011;64005;55.160;36.002;2023-06-14T21:56:09;7.22;;;3.20;;
75423;SDS011;64005;55.160;36.002;2023-06-14T21:58:37;8.82;;;3.30;;
75423;SDS011;64005;55.160;36.002;2023-06-14T22:01:04;8.25;;;3.10;;
75423;SDS011;64005;55.160;36.002;2023-06-14T22:03:33;8.23;;;3.17;;
75423;SDS011;64005;55.160;36.002;2023-06-14T22:06:01;6.63;;;2.75;;
75423;SDS011;64005;55.160;36.002;2023-06-14T22:08:28;9.60;;;3.10;;
75423;SDS011;64005;55.160;36.002;2023-06-14T22:10:56;10.63;;;3.42;;
75423;SDS011;64005;55.160;36.002;2023-06-14T22:13:26;7.22;;;2.55;;
75423;SDS011;64005;55.160;36.002;2023-06-14T22:15:58;6.32;;;2.60;;
75423;SDS011;64005;55.160;36.002;2023-06-14T22:18:26;8.50;;;4.03;;
75423;SDS011;64005;55.160;36.002;2023-06-14T22:20:58;7.32;;;2.90;;
75423;SDS011;64005;55.160;36.002;2023-06-14T22:23:27;8.00;;;3.33;;
75423;SDS011;64005;55.160;36.002;2023-06-14T22:26:02;8.27;;;3.35;;
75423;SDS011;64005;55.160;36.002;2023-06-14T22:28:31;9.57;;;2.97;;
75423;SDS011;64005;55.160;36.002;2023-06-14T22:31:05;6.05;;;2.75;;
75423;SDS011;64005;55.160;36.002;2023-06-14T22:33:35;8.20;;;3.05;;
75423;SDS011;64005;55.160;36.002;2023-06-14T22:36:07;9.23;;;3.38;;
75423;SDS011;64005;55.160;36.002;2023-06-14T22:41:05;7.07;;;3.15;;
75423;SDS011;64005;55.160;36.002;2023-06-14T22:43:34;9.05;;;3.20;;
75423;SDS011;64005;55.160;36.002;2023-06-14T22:46:04;6.43;;;2.65;;
75423;SDS011;64005;55.160;36.002;2023-06-14T22:48:33;9.30;;;2.92;;
75423;SDS011;64005;55.160;36.002;2023-06-14T22:51:12;7.28;;;3.25;;
75423;SDS011;64005;55.160;36.002;2023-06-14T22:53:41;6.57;;;2.90;;
75423;SDS011;64005;55.160;36.002;2023-06-14T22:56:09;7.00;;;3.42;;
75423;SDS011;64005;55.160;36.002;2023-06-14T22:58:38;6.15;;;2.90;;
75423;SDS011;64005;55.160;36.002;2023-06-14T23:01:07;6.55;;;3.35;;
75423;SDS011;64005;55.160;36.002;2023-06-14T23:03:39;6.95;;;3.17;;
75423;SDS011;64005;55.160;36.002;2023-06-14T23:06:09;5.63;;;2.90;;
75423;SDS011;64005;55.160;36.002;2023-06-14T23:08:39;6.63;;;2.92;;
75423;SDS011;64005;55.160;36.002;2023-06-14T23:11:10;7.60;;;2.83;;
75423;SDS011;64005;55.160;36.002;2023-06-14T23:13:39;6.78;;;3.03;;
75423;SDS011;64005;55.160;36.002;2023-06-14T23:16:07;6.57;;;2.83;;
75423;SDS011;64005;55.160;36.002;2023-06-14T23:18:35;9.77;;;3.30;;
75423;SDS011;64005;55.160;36.002;2023-06-14T23:21:03;7.43;;;2.83;;
75423;SDS011;64005;55.160;36.002;2023-06-14T23:23:30;7.15;;;2.58;;
75423;SDS011;64005;55.160;36.002;2023-06-14T23:26:02;7.72;;;3.22;;
75423;SDS011;64005;55.160;36.002;2023-06-14T23:28:31;7.00;;;3.13;;
75423;SDS011;64005;55.160;36.002;2023-06-14T23:30:59;7.70;;;3.17;;
75423;SDS011;64005;55.160;36.002;2023-06-14T23:33:27;8.10;;;3.33;;
75423;SDS011;64005;55.160;36.002;2023-06-14T23:35:56;8.85;;;2.95;;
75423;SDS011;64005;55.160;36.002;2023-06-14T23:38:26;6.95;;;2.95;;
75423;SDS011;64005;55.160;36.002;2023-06-14T23:40:55;7.40;;;3.03;;
75423;SDS011;64005;55.160;36.002;2023-06-14T23:43:25;7.40;;;3.05;;
75423;SDS011;64005;55.160;36.002;2023-06-14T23:45:52;8.45;;;2.90;;
75423;SDS011;64005;55.160;36.002;2023-06-14T23:48:21;8.52;;;2.78;;
75423;SDS011;64005;55.160;36.002;2023-06-14T23:50:51;10.85;;;3.25;;
75423;SDS011;64005;55.160;36.002;2023-06-14T23:53:19;6.80;;;3.00;;
75423;SDS011;64005;55.160;36.002;2023-06-14T23:55:48;8.23;;;3.20;;
75423;SDS011;64005;55.160;36.002;2023-06-14T23:58:18;7.25;;;2.85;;
